createdAt,value
2023-08-01T00:02:45.280Z,2.60
2023-08-01T00:05:47.728Z,2.43
2023-08-01T00:08:50.092Z,2.45
2023-08-01T00:11:52.568Z,2.35
2023-08-01T00:14:54.939Z,2.42
2023-08-01T00:17:57.313Z,2.60
2023-08-01T00:21:00.057Z,2.10
2023-08-01T00:24:02.476Z,2.63
2023-08-01T00:27:05.409Z,2.50
2023-08-01T00:30:08.892Z,2.40
2023-08-01T00:33:11.261Z,2.30
2023-08-01T00:36:13.627Z,2.20
2023-08-01T00:39:16.004Z,2.70
2023-08-01T00:42:18.606Z,2.42
2023-08-01T00:45:20.983Z,3.10
2023-08-01T00:48:23.396Z,2.42
2023-08-01T00:51:25.881Z,2.00
2023-08-01T00:54:28.319Z,2.55
2023-08-01T00:57:30.850Z,2.42
2023-08-01T01:00:34.034Z,2.50
2023-08-01T01:03:37.812Z,2.50
2023-08-01T01:06:47.251Z,2.80
2023-08-01T01:09:51.121Z,2.53
2023-08-01T01:12:53.512Z,2.42
2023-08-01T01:15:55.871Z,2.50
2023-08-01T01:18:58.233Z,2.45
2023-08-01T01:22:00.675Z,2.43
2023-08-01T01:25:03.522Z,2.47
2023-08-01T01:28:06.347Z,2.22
2023-08-01T01:31:08.834Z,2.22
2023-08-01T01:34:11.393Z,2.30
2023-08-01T01:37:13.763Z,2.13
2023-08-01T01:40:16.175Z,2.63
2023-08-01T01:43:18.566Z,2.92
2023-08-01T01:46:20.972Z,2.50
2023-08-01T01:49:23.358Z,2.88
2023-08-01T01:52:25.745Z,2.10
2023-08-01T01:55:28.221Z,2.65
2023-08-01T01:58:30.590Z,2.75
2023-08-01T02:01:33.028Z,2.55
2023-08-01T02:04:36.318Z,2.25
2023-08-01T02:07:38.710Z,2.77
2023-08-01T02:10:41.090Z,2.70
2023-08-01T02:13:43.477Z,2.67
2023-08-01T02:16:45.866Z,2.72
2023-08-01T02:19:48.254Z,2.42
2023-08-01T02:22:50.643Z,2.70
2023-08-01T02:25:53.048Z,2.40
2023-08-01T02:28:55.393Z,2.40
2023-08-01T02:31:57.831Z,2.47
2023-08-01T02:35:00.471Z,2.72
2023-08-01T02:38:04.353Z,2.20
2023-08-01T02:41:06.692Z,2.33
2023-08-01T02:44:10.092Z,2.60
2023-08-01T02:47:12.446Z,2.38
2023-08-01T02:50:14.849Z,2.35
2023-08-01T02:53:17.190Z,2.23
2023-08-01T02:56:19.577Z,2.42
2023-08-01T02:59:21.918Z,2.70
2023-08-01T03:02:24.341Z,2.92
2023-08-01T03:05:26.759Z,3.13
2023-08-01T03:08:29.118Z,2.70
2023-08-01T03:11:32.162Z,3.00
2023-08-01T03:14:34.608Z,3.08
2023-08-01T03:17:37.116Z,2.90
2023-08-01T03:20:39.608Z,2.85
2023-08-01T03:23:42.110Z,2.80
2023-08-01T03:26:44.506Z,3.13
2023-08-01T03:29:46.876Z,2.40
2023-08-01T03:32:49.500Z,2.83
2023-08-01T03:35:51.934Z,2.88
2023-08-01T03:38:54.730Z,3.03
2023-08-01T03:41:57.124Z,3.38
2023-08-01T03:44:59.528Z,3.47
2023-08-01T03:48:01.900Z,3.22
2023-08-01T03:51:05.350Z,2.90
2023-08-01T03:54:14.079Z,3.03
2023-08-01T03:57:16.794Z,3.22
2023-08-01T04:00:19.567Z,2.90
2023-08-01T04:03:22.932Z,3.60
2023-08-01T04:06:25.449Z,3.53
2023-08-01T04:09:35.204Z,3.03
2023-08-01T04:12:37.848Z,3.00
2023-08-01T04:15:40.225Z,3.53
2023-08-01T04:18:42.721Z,3.33
2023-08-01T04:21:45.146Z,3.30
2023-08-01T04:24:47.530Z,2.90
2023-08-01T04:27:49.891Z,3.03
2023-08-01T04:30:52.677Z,3.42
2023-08-01T04:33:55.126Z,3.05
2023-08-01T04:36:57.531Z,3.25
2023-08-01T04:40:00.046Z,3.23
2023-08-01T04:43:02.885Z,3.75
2023-08-01T04:46:05.252Z,3.75
2023-08-01T04:49:08.027Z,3.47
2023-08-01T04:52:10.394Z,4.43
2023-08-01T04:55:12.748Z,5.27
2023-08-01T04:58:15.084Z,3.85
2023-08-01T05:01:17.505Z,4.80
2023-08-01T05:04:19.901Z,4.00
2023-08-01T05:07:22.309Z,4.40
2023-08-01T05:10:24.679Z,4.30
2023-08-01T05:13:27.057Z,3.70
2023-08-01T05:16:29.499Z,4.75
2023-08-01T05:19:31.863Z,4.05
2023-08-01T05:22:34.284Z,4.18
2023-08-01T05:25:36.755Z,4.57
2023-08-01T05:28:39.130Z,3.88
2023-08-01T05:31:41.899Z,4.60
2023-08-01T05:34:44.294Z,4.43
2023-08-01T05:37:46.698Z,5.00
2023-08-01T05:40:49.080Z,4.70
2023-08-01T05:43:51.505Z,4.20
2023-08-01T05:46:53.891Z,4.45
2023-08-01T05:49:56.237Z,4.88
2023-08-01T05:52:58.638Z,4.25
2023-08-01T05:56:01.024Z,4.90
2023-08-01T05:59:03.652Z,4.72
2023-08-01T06:02:06.262Z,4.72
2023-08-01T06:05:08.783Z,4.35
2023-08-01T06:08:11.146Z,4.68
2023-08-01T06:11:13.605Z,4.13
2023-08-01T06:14:16.723Z,4.95
2023-08-01T06:17:20.456Z,4.85
2023-08-01T06:20:22.865Z,4.30
2023-08-01T06:23:25.204Z,4.18
2023-08-01T06:26:27.625Z,3.50
2023-08-01T06:29:30.011Z,4.43
2023-08-01T06:32:32.480Z,4.35
2023-08-01T06:35:35.044Z,4.22
2023-08-01T06:38:37.470Z,4.22
2023-08-01T06:41:39.831Z,3.90
2023-08-01T06:44:42.251Z,3.85
2023-08-01T06:47:44.611Z,3.50
2023-08-01T06:50:47.075Z,4.03
2023-08-01T06:53:49.505Z,3.70
2023-08-01T06:56:51.905Z,2.57
2023-08-01T06:59:54.427Z,3.00
2023-08-01T07:02:57.763Z,2.83
2023-08-01T07:06:00.762Z,2.28
2023-08-01T07:09:03.248Z,2.20
2023-08-01T07:12:06.385Z,2.30
2023-08-01T07:15:09.552Z,2.22
2023-08-01T07:18:11.906Z,2.33
2023-08-01T07:21:14.223Z,2.03
2023-08-01T07:24:16.814Z,2.55
2023-08-01T07:27:19.200Z,2.27
2023-08-01T07:30:21.614Z,2.60
2023-08-01T07:33:24.059Z,2.20
2023-08-01T07:36:26.983Z,2.50
2023-08-01T07:39:29.368Z,2.25
2023-08-01T07:42:31.928Z,2.50
2023-08-01T07:45:35.977Z,2.50
2023-08-01T07:48:39.003Z,2.17
2023-08-01T07:51:41.404Z,2.33
2023-08-01T07:54:43.820Z,2.50
2023-08-01T07:57:46.195Z,3.00
2023-08-01T08:00:49.267Z,4.05
2023-08-01T08:03:51.796Z,4.63
2023-08-01T08:06:56.070Z,6.63
2023-08-01T08:09:58.435Z,8.63
2023-08-01T08:13:00.809Z,6.40
2023-08-01T08:16:03.435Z,6.80
2023-08-01T08:19:05.874Z,5.57
2023-08-01T08:22:08.220Z,4.05
2023-08-01T08:25:10.597Z,4.95
2023-08-01T08:28:13.842Z,4.10
2023-08-01T08:31:16.356Z,4.05
2023-08-01T08:34:18.750Z,5.22
2023-08-01T08:37:21.132Z,3.40
2023-08-01T08:40:23.484Z,3.15
2023-08-01T08:43:26.037Z,3.17
2023-08-01T08:46:30.155Z,3.10
2023-08-01T08:49:32.585Z,3.45
2023-08-01T08:52:34.936Z,3.10
2023-08-01T08:55:37.273Z,2.90
2023-08-01T08:58:42.389Z,3.70
2023-08-01T09:01:44.763Z,2.97
2023-08-01T09:04:47.249Z,2.70
2023-08-01T09:07:49.613Z,3.03
2023-08-01T09:10:51.930Z,3.10
2023-08-01T09:13:54.322Z,3.20
2023-08-01T09:16:57.010Z,2.60
2023-08-01T09:20:09.161Z,3.22
2023-08-01T09:23:12.495Z,2.80
2023-08-01T09:26:18.726Z,2.75
2023-08-01T09:29:21.393Z,2.57
2023-08-01T09:32:23.776Z,2.70
2023-08-01T09:35:26.173Z,2.38
2023-08-01T09:38:30.234Z,2.63
2023-08-01T09:41:32.682Z,2.88
2023-08-01T09:44:35.948Z,2.40
2023-08-01T09:47:38.496Z,2.65
2023-08-01T09:50:40.911Z,2.28
2023-08-01T09:53:56.849Z,2.65
2023-08-01T09:56:59.212Z,2.55
2023-08-01T10:00:01.701Z,2.40
2023-08-01T10:03:14.364Z,2.25
2023-08-01T10:06:24.140Z,2.75
2023-08-01T10:09:26.916Z,2.50
2023-08-01T10:12:29.574Z,2.17
2023-08-01T10:15:31.965Z,2.30
2023-08-01T10:18:34.394Z,1.92
2023-08-01T10:21:36.795Z,2.03
2023-08-01T10:24:39.158Z,2.17
2023-08-01T10:27:42.240Z,1.90
2023-08-01T10:30:45.125Z,2.10
2023-08-01T10:33:48.391Z,2.28
2023-08-01T10:36:57.774Z,2.47
2023-08-01T10:40:03.645Z,2.65
2023-08-01T10:43:06.225Z,2.22
2023-08-01T10:46:08.955Z,1.90
2023-08-01T10:49:11.340Z,1.83
2023-08-01T10:52:24.685Z,2.25
2023-08-01T10:55:27.124Z,2.20
2023-08-01T10:58:29.576Z,1.98
2023-08-01T11:01:32.008Z,2.30
2023-08-01T11:04:34.428Z,2.30
2023-08-01T11:07:36.813Z,2.30
2023-08-01T11:10:39.186Z,2.47
2023-08-01T11:13:41.678Z,2.20
2023-08-01T11:16:44.321Z,2.40
2023-08-01T11:19:46.650Z,2.20
2023-08-01T11:22:51.742Z,2.42
2023-08-01T11:25:55.885Z,2.10
2023-08-01T11:29:02.595Z,2.20
2023-08-01T11:32:06.410Z,1.90
2023-08-01T11:35:08.916Z,2.08
2023-08-01T11:38:11.310Z,2.10
2023-08-01T11:41:13.666Z,2.05
2023-08-01T11:44:16.054Z,2.25
2023-08-01T11:47:18.873Z,1.90
2023-08-01T11:50:25.865Z,2.25
2023-08-01T11:53:29.240Z,2.00
2023-08-01T11:56:32.112Z,1.92
2023-08-01T11:59:34.715Z,2.20
2023-08-01T12:02:37.098Z,2.17
2023-08-01T12:05:39.457Z,2.33
2023-08-01T12:08:46.135Z,1.95
2023-08-01T12:11:48.511Z,1.88
2023-08-01T12:14:50.890Z,2.00
2023-08-01T12:17:53.272Z,1.87
2023-08-01T12:20:55.864Z,1.70
2023-08-01T12:23:58.320Z,2.28
2023-08-01T12:27:00.694Z,1.80
2023-08-01T12:30:03.253Z,1.90
2023-08-01T12:33:05.644Z,2.07
2023-08-01T12:36:08.150Z,1.52
2023-08-01T12:39:12.150Z,2.10
2023-08-01T12:42:14.572Z,1.88
2023-08-01T12:45:17.518Z,1.70
2023-08-01T12:48:20.249Z,2.20
2023-08-01T12:51:22.621Z,2.10
2023-08-01T12:54:25.057Z,2.20
2023-08-01T12:57:29.648Z,2.20
2023-08-01T13:00:33.549Z,1.98
2023-08-01T13:03:35.979Z,1.97
2023-08-01T13:06:38.786Z,1.92
2023-08-01T13:09:41.580Z,2.40
2023-08-01T13:12:44.453Z,1.98
2023-08-01T13:15:46.866Z,1.95
2023-08-01T13:18:49.478Z,1.97
2023-08-01T13:21:52.077Z,1.67
2023-08-01T13:24:54.410Z,2.10
2023-08-01T13:27:56.799Z,2.33
2023-08-01T13:30:59.269Z,2.00
2023-08-01T13:34:01.660Z,1.90
2023-08-01T13:37:04.208Z,2.20
2023-08-01T13:40:07.321Z,1.90
2023-08-01T13:43:09.701Z,2.03
2023-08-01T13:46:28.595Z,2.60
2023-08-01T13:49:32.011Z,2.20
2023-08-01T13:52:34.408Z,2.20
2023-08-01T13:55:36.843Z,2.20
2023-08-01T13:58:42.381Z,2.58
2023-08-01T14:01:44.923Z,2.78
2023-08-01T14:04:47.380Z,2.30
2023-08-01T14:07:49.786Z,2.20
2023-08-01T14:10:52.176Z,2.33
2023-08-01T14:13:54.693Z,2.35
2023-08-01T14:16:57.092Z,2.70
2023-08-01T14:20:00.246Z,2.43
2023-08-01T14:23:02.746Z,2.72
2023-08-01T14:26:05.100Z,2.38
2023-08-01T14:29:07.447Z,2.28
2023-08-01T14:32:09.918Z,2.42
2023-08-01T14:35:13.059Z,2.50
2023-08-01T14:38:15.400Z,2.08
2023-08-01T14:41:39.874Z,2.15
2023-08-01T14:44:40.053Z,2.28
2023-08-01T14:47:43.959Z,2.40
2023-08-01T14:50:46.378Z,2.23
2023-08-01T14:53:48.764Z,2.15
2023-08-01T14:56:51.166Z,2.60
2023-08-01T14:59:53.502Z,2.85
2023-08-01T15:02:55.916Z,3.08
2023-08-01T15:05:58.287Z,2.80
2023-08-01T15:09:00.694Z,2.30
2023-08-01T15:12:03.120Z,3.13
2023-08-01T15:15:06.654Z,2.30
2023-08-01T15:18:09.025Z,2.47
2023-08-01T15:21:11.373Z,2.40
2023-08-01T15:24:13.764Z,2.13
2023-08-01T15:27:16.156Z,2.80
2023-08-01T15:30:19.868Z,2.53
2023-08-01T15:33:22.476Z,2.30
2023-08-01T15:36:27.588Z,2.30
2023-08-01T15:39:29.979Z,1.95
2023-08-01T15:42:32.377Z,2.47
2023-08-01T15:45:35.085Z,2.00
2023-08-01T15:48:37.744Z,2.20
2023-08-01T15:51:40.141Z,2.20
2023-08-01T15:54:42.724Z,1.80
2023-08-01T15:57:45.848Z,1.95
2023-08-01T16:00:48.203Z,2.20
2023-08-01T16:03:50.585Z,2.03
2023-08-01T16:06:52.936Z,1.90
2023-08-01T16:09:55.313Z,2.30
2023-08-01T16:12:57.652Z,2.10
2023-08-01T16:16:01.020Z,1.83
2023-08-01T16:19:03.524Z,2.05
2023-08-01T16:22:06.274Z,2.17
2023-08-01T16:25:08.997Z,2.20
2023-08-01T16:28:11.429Z,2.10
2023-08-01T16:31:15.404Z,2.10
2023-08-01T16:34:17.953Z,2.33
2023-08-01T16:37:22.633Z,1.63
2023-08-01T16:40:25.023Z,2.10
2023-08-01T16:43:27.367Z,2.00
2023-08-01T16:46:30.892Z,1.77
2023-08-01T16:49:33.243Z,2.17
2023-08-01T16:52:35.648Z,2.43
2023-08-01T16:55:38.728Z,2.30
2023-08-01T16:58:41.078Z,2.50
2023-08-01T17:01:43.396Z,2.58
2023-08-01T17:04:45.853Z,2.03
2023-08-01T17:07:48.269Z,2.20
2023-08-01T17:10:50.636Z,1.73
2023-08-01T17:13:53.004Z,2.33
2023-08-01T17:16:55.452Z,2.17
2023-08-01T17:19:58.923Z,1.90
2023-08-01T17:23:01.372Z,2.20
2023-08-01T17:26:04.218Z,2.25
2023-08-01T17:29:06.736Z,2.30
2023-08-01T17:32:09.212Z,1.95
2023-08-01T17:35:11.608Z,2.22
2023-08-01T17:38:14.756Z,2.37
2023-08-01T17:41:27.459Z,2.28
2023-08-01T17:44:32.103Z,2.05
2023-08-01T17:47:42.529Z,2.50
2023-08-01T17:50:45.220Z,2.30
2023-08-01T17:53:47.790Z,1.83
2023-08-01T17:56:50.918Z,2.75
2023-08-01T17:59:53.269Z,2.03
2023-08-01T18:02:55.657Z,1.88
2023-08-01T18:06:14.157Z,1.88
2023-08-01T18:09:19.733Z,1.53
2023-08-01T18:12:22.401Z,1.60
2023-08-01T18:15:24.876Z,1.70
2023-08-01T18:18:27.269Z,1.13
2023-08-01T18:21:29.611Z,1.27
2023-08-01T18:24:32.922Z,1.20
2023-08-01T18:27:35.264Z,0.77
2023-08-01T18:30:38.943Z,1.13
2023-08-01T18:33:41.919Z,0.98
2023-08-01T18:36:44.272Z,0.95
2023-08-01T18:39:46.636Z,0.90
2023-08-01T18:42:48.975Z,1.05
2023-08-01T18:45:57.250Z,1.40
2023-08-01T18:48:59.662Z,0.90
2023-08-01T18:52:01.984Z,0.77
2023-08-01T18:55:04.499Z,1.00
2023-08-01T18:58:06.913Z,1.30
2023-08-01T19:01:26.891Z,1.10
2023-08-01T19:04:29.623Z,0.90
2023-08-01T19:07:32.844Z,0.93
2023-08-01T19:10:35.215Z,1.00
2023-08-01T19:13:38.778Z,1.17
2023-08-01T19:16:41.412Z,0.90
2023-08-01T19:19:44.573Z,1.30
2023-08-01T19:22:49.191Z,1.40
2023-08-01T19:25:52.962Z,1.13
2023-08-01T19:28:55.334Z,1.50
2023-08-01T19:31:58.029Z,0.98
2023-08-01T19:35:00.500Z,0.80
2023-08-01T19:38:02.874Z,0.98
2023-08-01T19:41:05.304Z,0.80
2023-08-01T19:44:07.684Z,0.90
2023-08-01T19:47:10.791Z,1.20
2023-08-01T19:50:13.374Z,0.80
2023-08-01T19:53:15.719Z,0.65
2023-08-01T19:56:18.041Z,0.67
2023-08-01T19:59:22.134Z,0.63
2023-08-01T20:02:24.597Z,0.82
2023-08-01T20:05:27.059Z,0.63
2023-08-01T20:08:30.330Z,0.80
2023-08-01T20:11:32.750Z,0.93
2023-08-01T20:14:35.131Z,0.90
2023-08-01T20:17:37.506Z,0.77
2023-08-01T20:20:39.907Z,0.60
2023-08-01T20:23:42.331Z,1.13
2023-08-01T20:26:45.785Z,0.80
2023-08-01T20:29:48.232Z,0.80
2023-08-01T20:32:50.635Z,1.10
2023-08-01T20:35:58.126Z,0.75
2023-08-01T20:39:00.627Z,1.30
2023-08-01T20:42:03.022Z,0.97
2023-08-01T20:45:06.514Z,0.60
2023-08-01T20:48:12.737Z,1.10
2023-08-01T20:51:15.440Z,1.42
2023-08-01T20:54:18.058Z,1.30
2023-08-01T20:57:20.459Z,0.93
2023-08-01T21:00:22.837Z,1.20
2023-08-01T21:03:25.269Z,1.30
2023-08-01T21:06:27.726Z,1.40
2023-08-01T21:09:30.640Z,1.48
2023-08-01T21:12:34.656Z,1.67
2023-08-01T21:15:38.117Z,1.25
2023-08-01T21:18:41.469Z,1.48
2023-08-01T21:21:43.853Z,1.40
2023-08-01T21:24:46.369Z,1.58
2023-08-01T21:27:48.784Z,1.10
2023-08-01T21:30:51.154Z,1.10
2023-08-01T21:33:53.521Z,1.15
2023-08-01T21:36:55.904Z,1.45
2023-08-01T21:39:59.090Z,1.20
2023-08-01T21:43:01.424Z,0.97
2023-08-01T21:46:03.820Z,1.38
2023-08-01T21:49:06.146Z,1.30
2023-08-01T21:52:08.853Z,1.33
2023-08-01T21:55:11.240Z,1.67
2023-08-01T21:58:17.282Z,1.30
2023-08-01T22:01:19.741Z,1.42
2023-08-01T22:04:22.141Z,1.50
2023-08-01T22:07:24.533Z,1.38
2023-08-01T22:10:27.767Z,1.63
2023-08-01T22:13:30.230Z,1.30
2023-08-01T22:16:32.634Z,1.50
2023-08-01T22:19:35.038Z,1.52
2023-08-01T22:22:37.541Z,1.58
2023-08-01T22:25:39.891Z,1.52
2023-08-01T22:28:42.281Z,1.30
2023-08-01T22:31:44.653Z,1.63
2023-08-01T22:34:46.992Z,1.80
2023-08-01T22:37:49.363Z,1.67
2023-08-01T22:40:51.704Z,1.30
2023-08-01T22:43:59.199Z,1.30
2023-08-01T22:47:02.197Z,1.17
2023-08-01T22:50:06.928Z,1.65
2023-08-01T22:53:09.831Z,1.10
2023-08-01T22:56:12.218Z,1.23
2023-08-01T22:59:14.584Z,1.30
2023-08-01T23:02:17.721Z,1.52
2023-08-01T23:05:21.631Z,1.40
2023-08-01T23:08:24.107Z,1.33
2023-08-01T23:11:26.524Z,1.30
2023-08-01T23:14:28.865Z,1.23
2023-08-01T23:17:35.063Z,1.23
2023-08-01T23:20:37.450Z,1.08
2023-08-01T23:23:39.808Z,1.45
2023-08-01T23:26:42.421Z,1.15
2023-08-01T23:29:45.108Z,1.40
2023-08-01T23:32:47.499Z,1.30
2023-08-01T23:35:50.000Z,1.55
2023-08-01T23:38:52.876Z,1.38
2023-08-01T23:41:57.985Z,1.50
2023-08-01T23:45:00.426Z,1.40
2023-08-01T23:48:03.884Z,1.60
2023-08-01T23:51:06.272Z,1.73
2023-08-01T23:54:08.628Z,1.27
2023-08-01T23:57:11.031Z,1.90
